Time,TemperatureF,DewpointF,PressureIn,WindDirection,WindDirectionDegrees,WindSpeedMPH,WindSpeedGustMPH,Humidity,HourlyPrecipIn,Conditions,Clouds,dailyrainin,SoftwareType,DateUTC
2013-09-07 00:02:00,73.9,73.0,29.98,West,279,0.0,1.0,96,0.00,,,0.00,weatherlink.com 1.10,2013-09-07 04:02:00,
2013-09-07 00:17:00,74.1,73.0,29.99,NNW,327,0.0,2.0,96,0.00,,,0.00,weatherlink.com 1.10,2013-09-07 04:17:00,
2013-09-07 00:32:00,74.0,73.0,29.99,NNW,327,1.0,2.0,96,0.00,,,0.00,weatherlink.com 1.10,2013-09-07 04:32:00,
2013-09-07 00:47:00,73.9,73.0,29.99,North,11,1.0,4.0,97,0.00,,,0.00,weatherlink.com 1.10,2013-09-07 04:47:00,
2013-09-07 01:02:00,73.7,73.0,29.99,NE,38,3.0,6.0,97,0.00,,,0.00,weatherlink.com 1.10,2013-09-07 05:02:00,
2013-09-07 01:17:00,73.5,73.0,29.99,NNE,32,0.0,3.0,97,0.00,,,0.00,weatherlink.com 1.10,2013-09-07 05:17:00,
2013-09-07 01:32:00,73.3,72.0,29.99,NNE,32,0.0,1.0,97,0.00,,,0.00,weatherlink.com 1.10,2013-09-07 05:32:00,
2013-09-07 01:47:00,73.2,72.0,29.99,NNE,32,0.0,0.0,97,0.00,,,0.00,weatherlink.com 1.10,2013-09-07 05:47:00,
2013-09-07 02:02:00,73.0,72.0,29.98,NNE,32,0.0,0.0,97,0.00,,,0.00,weatherlink.com 1.10,2013-09-07 06:02:00,
2013-09-07 02:17:00,72.8,72.0,29.98,NNE,32,0.0,0.0,96,0.00,,,0.00,weatherlink.com 1.10,2013-09-07 06:17:00,
2013-09-07 02:32:00,72.6,72.0,29.97,NNE,32,0.0,0.0,97,0.00,,,0.00,weatherlink.com 1.10,2013-09-07 06:32:00,
2013-09-07 02:47:00,72.4,72.0,29.97,NNE,32,0.0,0.0,97,0.00,,,0.00,weatherlink.com 1.10,2013-09-07 06:47:00,
2013-09-07 03:02:00,72.3,71.0,29.97,NNE,32,0.0,0.0,97,0.00,,,0.00,weatherlink.com 1.10,2013-09-07 07:02:00,
2013-09-07 03:17:00,72.2,71.0,29.97,NNE,32,0.0,0.0,97,0.00,,,0.00,weatherlink.com 1.10,2013-09-07 07:17:00,
2013-09-07 03:32:00,72.6,72.0,29.97,NNE,32,0.0,1.0,97,0.00,,,0.00,weatherlink.com 1.10,2013-09-07 07:32:00,
2013-09-07 03:47:00,73.0,72.0,29.97,NNE,32,0.0,2.0,97,0.00,,,0.00,weatherlink.com 1.10,2013-09-07 07:47:00,
2013-09-07 04:02:00,73.0,72.0,29.97,North,5,1.0,3.0,97,0.00,,,0.00,weatherlink.com 1.10,2013-09-07 08:02:00,
2013-09-07 04:17:00,73.2,72.0,29.96,NNE,32,3.0,4.0,97,0.00,,,0.00,weatherlink.com 1.10,2013-09-07 08:17:00,
2013-09-07 04:32:00,73.4,73.0,29.96,NNE,20,1.0,5.0,97,0.00,,,0.00,weatherlink.com 1.10,2013-09-07 08:32:00,
2013-09-07 04:47:00,73.1,72.0,29.96,NE,36,1.0,4.0,97,0.00,,,0.00,weatherlink.com 1.10,2013-09-07 08:47:00,
2013-09-07 05:02:00,72.8,72.0,29.96,NE,36,1.0,3.0,97,0.00,,,0.00,weatherlink.com 1.10,2013-09-07 09:02:00,
2013-09-07 05:17:00,72.6,72.0,29.95,NE,36,0.0,2.0,97,0.00,,,0.00,weatherlink.com 1.10,2013-09-07 09:17:00,
2013-09-07 05:32:00,72.5,72.0,29.95,NE,36,0.0,1.0,97,0.00,,,0.00,weatherlink.com 1.10,2013-09-07 09:32:00,
2013-09-07 05:47:00,72.3,71.0,29.95,NE,36,0.0,0.0,97,0.00,,,0.00,weatherlink.com 1.10,2013-09-07 09:47:00,
2013-09-07 06:02:00,72.1,71.0,29.95,NE,36,0.0,1.0,97,0.00,,,0.00,weatherlink.com 1.10,2013-09-07 10:02:00,
2013-09-07 06:17:00,72.0,71.0,29.94,NE,36,1.0,2.0,97,0.00,,,0.00,weatherlink.com 1.10,2013-09-07 10:17:00,
2013-09-07 06:47:00,72.3,71.0,29.95,North,5,1.0,2.0,97,0.00,,,0.00,weatherlink.com 1.10,2013-09-07 10:47:00,
2013-09-07 07:02:00,72.2,71.0,29.97,North,5,0.0,1.0,97,0.00,,,0.00,weatherlink.com 1.10,2013-09-07 11:02:00,
2013-09-07 07:17:00,72.1,71.0,29.97,North,5,0.0,1.0,97,0.00,,,0.00,weatherlink.com 1.10,2013-09-07 11:17:00,
2013-09-07 07:32:00,72.1,71.0,29.98,North,5,0.0,1.0,97,0.00,,,0.00,weatherlink.com 1.10,2013-09-07 11:32:00,
2013-09-07 07:48:00,72.2,72.0,29.98,North,5,0.0,1.0,98,0.00,,,0.00,weatherlink.com 1.10,2013-09-07 11:48:00,
2013-09-07 08:03:00,72.4,72.0,29.98,North,5,0.0,1.0,98,0.00,,,0.00,weatherlink.com 1.10,2013-09-07 12:03:00,
2013-09-07 08:18:00,72.5,72.0,29.98,North,5,0.0,2.0,98,0.00,,,0.00,weatherlink.com 1.10,2013-09-07 12:18:00,
2013-09-07 08:33:00,73.2,73.0,29.98,NE,35,2.0,5.0,98,0.01,,,0.01,weatherlink.com 1.10,2013-09-07 12:33:00,
2013-09-07 08:48:00,73.7,73.0,29.98,NE,49,2.0,4.0,98,0.01,,,0.01,weatherlink.com 1.10,2013-09-07 12:48:00,
2013-09-07 09:03:00,74.2,74.0,29.98,NNE,24,1.0,3.0,98,0.01,,,0.01,weatherlink.com 1.10,2013-09-07 13:03:00,
2013-09-07 09:18:00,75.2,75.0,29.99,NE,41,0.0,4.0,98,0.01,,,0.01,weatherlink.com 1.10,2013-09-07 13:18:00,
2013-09-07 09:33:00,75.3,75.0,29.99,NNE,32,2.0,6.0,98,0.00,,,0.01,weatherlink.com 1.10,2013-09-07 13:33:00,
2013-09-07 09:48:00,77.1,76.0,29.99,NNE,24,5.0,5.0,97,0.00,,,0.01,weatherlink.com 1.10,2013-09-07 13:48:00,
2013-09-07 10:03:00,78.0,76.0,30.00,NNE,17,4.0,6.0,94,0.00,,,0.01,weatherlink.com 1.10,2013-09-07 14:03:00,
2013-09-07 10:18:00,79.2,77.0,30.00,NNE,23,3.0,6.0,92,0.00,,,0.01,weatherlink.com 1.10,2013-09-07 14:18:00,
2013-09-07 10:33:00,79.5,77.0,30.01,NE,46,2.0,7.0,92,0.00,,,0.01,weatherlink.com 1.10,2013-09-07 14:33:00,
2013-09-07 10:48:00,79.1,76.0,30.01,ENE,69,2.0,7.0,91,0.00,,,0.01,weatherlink.com 1.10,2013-09-07 14:48:00,
2013-09-07 11:03:00,78.9,76.0,30.02,NE,43,3.0,8.0,91,0.00,,,0.01,weatherlink.com 1.10,2013-09-07 15:03:00,
2013-09-07 11:18:00,79.7,76.0,30.02,ENE,71,2.0,8.0,89,0.00,,,0.01,weatherlink.com 1.10,2013-09-07 15:18:00,
2013-09-07 11:33:00,79.7,76.0,30.01,NNE,25,1.0,7.0,88,0.00,,,0.01,weatherlink.com 1.10,2013-09-07 15:33:00,
2013-09-07 11:48:00,81.6,77.0,30.01,North,11,1.0,5.0,85,0.00,,,0.01,weatherlink.com 1.10,2013-09-07 15:48:00,
2013-09-07 12:03:00,83.3,78.0,30.01,NNE,32,3.0,5.0,83,0.00,,,0.01,weatherlink.com 1.10,2013-09-07 16:03:00,
2013-09-07 12:18:00,83.3,77.0,30.00,NNE,24,5.0,6.0,82,0.00,,,0.01,weatherlink.com 1.10,2013-09-07 16:18:00,
2013-09-07 12:33:00,83.7,76.0,30.00,NE,51,2.0,5.0,78,0.00,,,0.01,weatherlink.com 1.10,2013-09-07 16:33:00,
2013-09-07 12:48:00,83.8,76.0,29.99,NE,38,1.0,3.0,78,0.00,,,0.01,weatherlink.com 1.10,2013-09-07 16:48:00,
2013-09-07 13:03:00,83.8,76.0,30.00,NE,43,1.0,5.0,77,0.00,,,0.01,weatherlink.com 1.10,2013-09-07 17:03:00,
2013-09-07 13:18:00,84.6,76.0,29.99,NNE,22,0.0,5.0,75,0.00,,,0.01,weatherlink.com 1.10,2013-09-07 17:18:00,
2013-09-07 13:33:00,84.9,77.0,29.99,NNE,17,2.0,4.0,76,0.00,,,0.01,weatherlink.com 1.10,2013-09-07 17:33:00,
2013-09-07 13:48:00,86.6,76.0,29.98,NW,322,2.0,4.0,70,0.00,,,0.01,weatherlink.com 1.10,2013-09-07 17:48:00,
2013-09-07 14:03:00,87.5,77.0,29.97,NNE,15,3.0,7.0,70,0.00,,,0.01,weatherlink.com 1.10,2013-09-07 18:03:00,
2013-09-07 14:18:00,87.7,75.0,29.96,North,5,2.0,5.0,65,0.00,,,0.01,weatherlink.com 1.10,2013-09-07 18:18:00,
2013-09-07 14:33:00,88.4,75.0,29.96,WNW,300,2.0,7.0,65,0.00,,,0.01,weatherlink.com 1.10,2013-09-07 18:33:00,
2013-09-07 14:48:00,86.1,74.0,29.95,WNW,301,0.0,3.0,68,0.00,,,0.01,weatherlink.com 1.10,2013-09-07 18:48:00,
2013-09-07 15:03:00,89.1,75.0,29.94,West,271,3.0,5.0,64,0.00,,,0.01,weatherlink.com 1.10,2013-09-07 19:03:00,
2013-09-07 15:18:00,88.9,76.0,29.93,NNW,331,4.0,6.0,65,0.00,,,0.01,weatherlink.com 1.10,2013-09-07 19:18:00,
2013-09-07 15:34:00,88.6,75.0,29.92,NE,40,0.0,5.0,65,0.00,,,0.01,weatherlink.com 1.10,2013-09-07 19:34:00,
2013-09-07 15:49:00,89.3,75.0,29.92,NE,35,3.0,5.0,63,0.00,,,0.01,weatherlink.com 1.10,2013-09-07 19:49:00,
2013-09-07 16:04:00,89.3,74.0,29.92,NW,311,1.0,7.0,61,0.00,,,0.01,weatherlink.com 1.10,2013-09-07 20:04:00,
2013-09-07 16:19:00,87.3,73.0,29.92,NNE,24,3.0,8.0,63,0.00,,,0.01,weatherlink.com 1.10,2013-09-07 20:19:00,
2013-09-07 16:34:00,88.1,73.0,29.90,NW,310,2.0,6.0,62,0.00,,,0.01,weatherlink.com 1.10,2013-09-07 20:34:00,
2013-09-07 16:49:00,89.6,74.0,29.90,NNW,335,4.0,6.0,60,0.00,,,0.01,weatherlink.com 1.10,2013-09-07 20:49:00,
2013-09-07 17:04:00,87.6,73.0,29.91,NE,49,4.0,17.0,62,0.00,,,0.01,weatherlink.com 1.10,2013-09-07 21:04:00,
2013-09-07 17:19:00,85.0,74.0,29.91,ENE,76,4.0,11.0,70,0.00,,,0.01,weatherlink.com 1.10,2013-09-07 21:19:00,
2013-09-07 17:34:00,84.7,73.0,29.91,NE,44,5.0,13.0,67,0.00,,,0.01,weatherlink.com 1.10,2013-09-07 21:34:00,
2013-09-07 17:49:00,86.7,74.0,29.91,NNE,25,5.0,9.0,65,0.00,,,0.01,weatherlink.com 1.10,2013-09-07 21:49:00,
2013-09-07 18:04:00,84.6,72.0,29.91,NE,41,5.0,11.0,65,0.00,,,0.01,weatherlink.com 1.10,2013-09-07 22:04:00,
2013-09-07 18:19:00,83.0,73.0,29.93,NE,55,0.0,5.0,71,0.00,,,0.01,weatherlink.com 1.10,2013-09-07 22:19:00,
2013-09-07 18:34:00,80.5,74.0,29.93,SSW,201,0.0,3.0,81,0.00,,,0.01,weatherlink.com 1.10,2013-09-07 22:34:00,
2013-09-07 18:49:00,80.2,74.0,29.93,South,173,0.0,2.0,82,0.00,,,0.01,weatherlink.com 1.10,2013-09-07 22:49:00,
2013-09-07 19:04:00,79.3,74.0,29.93,South,173,0.0,1.0,84,0.00,,,0.01,weatherlink.com 1.10,2013-09-07 23:04:00,
2013-09-07 19:19:00,78.9,74.0,29.93,South,173,0.0,1.0,85,0.00,,,0.01,weatherlink.com 1.10,2013-09-07 23:19:00,
2013-09-07 19:34:00,78.7,74.0,29.93,South,173,0.0,1.0,85,0.00,,,0.01,weatherlink.com 1.10,2013-09-07 23:34:00,
2013-09-07 19:49:00,78.1,74.0,29.94,South,173,0.0,1.0,86,0.00,,,0.01,weatherlink.com 1.10,2013-09-07 23:49:00,
2013-09-07 20:04:00,77.6,74.0,29.95,South,173,0.0,1.0,87,0.00,,,0.01,weatherlink.com 1.10,2013-09-08 00:04:00,
2013-09-07 20:19:00,77.2,74.0,29.95,South,173,0.0,0.0,88,0.00,,,0.01,weatherlink.com 1.10,2013-09-08 00:19:00,
2013-09-07 20:34:00,76.9,74.0,29.95,South,173,0.0,0.0,89,0.00,,,0.01,weatherlink.com 1.10,2013-09-08 00:34:00,
2013-09-07 20:49:00,76.4,73.0,29.95,South,185,0.0,2.0,90,0.00,,,0.01,weatherlink.com 1.10,2013-09-08 00:49:00,
2013-09-07 21:04:00,76.2,73.0,29.96,South,185,0.0,1.0,90,0.00,,,0.01,weatherlink.com 1.10,2013-09-08 01:04:00,
2013-09-07 21:19:00,76.0,73.0,29.96,South,185,0.0,0.0,91,0.00,,,0.01,weatherlink.com 1.10,2013-09-08 01:19:00,
2013-09-07 21:34:00,75.6,73.0,29.97,SSW,212,1.0,3.0,91,0.00,,,0.01,weatherlink.com 1.10,2013-09-08 01:34:00,
2013-09-07 21:49:00,74.9,73.0,29.97,SSW,205,1.0,3.0,92,0.00,,,0.01,weatherlink.com 1.10,2013-09-08 01:49:00,
2013-09-07 22:04:00,74.8,72.0,29.97,SSW,205,0.0,1.0,92,0.00,,,0.01,weatherlink.com 1.10,2013-09-08 02:04:00,
2013-09-07 22:19:00,74.7,72.0,29.96,SSW,205,0.0,1.0,92,0.00,,,0.01,weatherlink.com 1.10,2013-09-08 02:19:00,
2013-09-07 22:34:00,74.5,72.0,29.96,West,273,0.0,4.0,93,0.00,,,0.01,weatherlink.com 1.10,2013-09-08 02:34:00,
2013-09-07 22:49:00,74.3,72.0,29.96,West,273,0.0,2.0,93,0.00,,,0.01,weatherlink.com 1.10,2013-09-08 02:49:00,
2013-09-07 23:04:00,74.1,72.0,29.96,West,273,0.0,0.0,93,0.00,,,0.01,weatherlink.com 1.10,2013-09-08 03:04:00,
2013-09-07 23:19:00,73.9,72.0,29.96,West,273,0.0,0.0,93,0.00,,,0.01,weatherlink.com 1.10,2013-09-08 03:19:00,
2013-09-07 23:34:00,73.7,72.0,29.95,West,273,0.0,0.0,93,0.00,,,0.01,weatherlink.com 1.10,2013-09-08 03:34:00,
2013-09-07 23:49:00,73.4,71.0,29.95,West,273,0.0,0.0,93,0.00,,,0.01,weatherlink.com 1.10,2013-09-08 03:49:00,